Smiths Park, South Dakota
Current Conditions -  °F | °C
As of 10:55 AM on Saturday 22 Nov 2014 (Local Time) from KMDS Reporting Station
Moderate Fog Moderate Fog  
Wind Chill: -5°   Ceiling: 300
Heat Index:   Visibility: 0.25mi
Dew Point:   Wind: 12mph
Humidity: 100%   Direction: 170°S
Pressure: 29.65"   Gusts: NA
Location:  43.9868°N, 96.9457°W
Report Text: KMDS 221655Z AUTO 17010KT 1/4SM FZFG OVC003 00/00 A2965 RMK AO2
Loading
Personal Weather Stations






























Interactive Weather Map New forecast layout! Learn more

10-Day Weather Forecast

Advertisements
Track Severe Weather on mobile